sensor_id;sensor_type;location;lat;lon;timestamp;temperature;humidity
69084;SHT31;56185;48.526;9.044;2022-11-02T00:00:43;9.79;81.01
69084;SHT31;56185;48.526;9.044;2022-11-02T00:03:09;9.67;81.46
69084;SHT31;56185;48.526;9.044;2022-11-02T00:05:34;9.81;80.64
69084;SHT31;56185;48.526;9.044;2022-11-02T00:08:03;9.64;81.27
69084;SHT31;56185;48.526;9.044;2022-11-02T00:10:28;9.89;80.55
69084;SHT31;56185;48.526;9.044;2022-11-02T00:12:53;9.79;80.74
69084;SHT31;56185;48.526;9.044;2022-11-02T00:15:19;9.53;82.39
69084;SHT31;56185;48.526;9.044;2022-11-02T00:17:47;9.54;82.16
69084;SHT31;56185;48.526;9.044;2022-11-02T00:20:14;9.33;82.70
69084;SHT31;56185;48.526;9.044;2022-11-02T00:22:41;9.35;83.02
69084;SHT31;56185;48.526;9.044;2022-11-02T00:25:09;9.23;83.49
69084;SHT31;56185;48.526;9.044;2022-11-02T00:27:35;9.21;83.98
69084;SHT31;56185;48.526;9.044;2022-11-02T00:30:00;9.16;84.16
69084;SHT31;56185;48.526;9.044;2022-11-02T00:32:26;9.18;84.44
69084;SHT31;56185;48.526;9.044;2022-11-02T00:34:52;9.12;84.33
69084;SHT31;56185;48.526;9.044;2022-11-02T00:37:17;9.23;84.19
69084;SHT31;56185;48.526;9.044;2022-11-02T00:39:42;9.15;84.61
69084;SHT31;56185;48.526;9.044;2022-11-02T00:42:08;9.10;84.75
69084;SHT31;56185;48.526;9.044;2022-11-02T00:44:33;9.02;85.19
69084;SHT31;56185;48.526;9.044;2022-11-02T00:46:58;9.10;84.92
69084;SHT31;56185;48.526;9.044;2022-11-02T00:49:23;9.15;84.43
69084;SHT31;56185;48.526;9.044;2022-11-02T00:51:48;8.95;85.55
69084;SHT31;56185;48.526;9.044;2022-11-02T00:54:14;9.02;84.87
69084;SHT31;56185;48.526;9.044;2022-11-02T00:56:39;9.04;85.38
69084;SHT31;56185;48.526;9.044;2022-11-02T00:59:04;8.98;85.45
69084;SHT31;56185;48.526;9.044;2022-11-02T01:01:29;9.11;84.85
69084;SHT31;56185;48.526;9.044;2022-11-02T01:03:56;9.12;84.51
69084;SHT31;56185;48.526;9.044;2022-11-02T01:06:21;9.08;84.75
69084;SHT31;56185;48.526;9.044;2022-11-02T01:08:47;9.07;85.09
69084;SHT31;56185;48.526;9.044;2022-11-02T01:11:18;9.05;85.07
69084;SHT31;56185;48.526;9.044;2022-11-02T01:13:44;9.11;85.21
69084;SHT31;56185;48.526;9.044;2022-11-02T01:16:10;8.97;85.47
69084;SHT31;56185;48.526;9.044;2022-11-02T01:18:36;9.11;84.86
69084;SHT31;56185;48.526;9.044;2022-11-02T01:21:01;9.16;84.70
69084;SHT31;56185;48.526;9.044;2022-11-02T01:23:26;9.07;85.19
69084;SHT31;56185;48.526;9.044;2022-11-02T01:25:51;9.14;85.06
69084;SHT31;56185;48.526;9.044;2022-11-02T01:28:17;9.02;85.83
69084;SHT31;56185;48.526;9.044;2022-11-02T01:30:42;8.97;86.21
69084;SHT31;56185;48.526;9.044;2022-11-02T01:33:08;9.08;85.76
69084;SHT31;56185;48.526;9.044;2022-11-02T01:35:35;9.02;85.56
69084;SHT31;56185;48.526;9.044;2022-11-02T01:38:00;9.05;84.32
69084;SHT31;56185;48.526;9.044;2022-11-02T01:40:25;9.04;84.34
69084;SHT31;56185;48.526;9.044;2022-11-02T01:42:51;9.18;83.92
69084;SHT31;56185;48.526;9.044;2022-11-02T01:45:16;9.15;83.82
69084;SHT31;56185;48.526;9.044;2022-11-02T01:47:44;9.15;83.86
69084;SHT31;56185;48.526;9.044;2022-11-02T01:50:15;9.02;84.14
69084;SHT31;56185;48.526;9.044;2022-11-02T01:52:42;9.11;83.95
69084;SHT31;56185;48.526;9.044;2022-11-02T01:55:16;9.01;84.15
69084;SHT31;56185;48.526;9.044;2022-11-02T01:57:45;9.12;83.41
69084;SHT31;56185;48.526;9.044;2022-11-02T02:00:13;9.07;83.43
69084;SHT31;56185;48.526;9.044;2022-11-02T02:03:05;9.11;83.40
69084;SHT31;56185;48.526;9.044;2022-11-02T02:05:33;9.02;83.53
69084;SHT31;56185;48.526;9.044;2022-11-02T02:08:00;9.11;83.30
69084;SHT31;56185;48.526;9.044;2022-11-02T02:10:26;9.02;83.23
69084;SHT31;56185;48.526;9.044;2022-11-02T02:12:51;9.15;82.49
69084;SHT31;56185;48.526;9.044;2022-11-02T02:15:17;9.02;82.64
69084;SHT31;56185;48.526;9.044;2022-11-02T02:18:19;9.11;82.33
69084;SHT31;56185;48.526;9.044;2022-11-02T02:28:39;8.88;83.26
69084;SHT31;56185;48.526;9.044;2022-11-02T02:33:54;8.94;82.61
69084;SHT31;56185;48.526;9.044;2022-11-02T02:38:48;8.98;81.42
69084;SHT31;56185;48.526;9.044;2022-11-02T02:41:19;8.85;80.88
69084;SHT31;56185;48.526;9.044;2022-11-02T02:43:49;8.70;81.46
69084;SHT31;56185;48.526;9.044;2022-11-02T02:46:22;8.71;81.21
69084;SHT31;56185;48.526;9.044;2022-11-02T02:48:50;8.53;81.50
69084;SHT31;56185;48.526;9.044;2022-11-02T02:51:21;8.57;81.12
69084;SHT31;56185;48.526;9.044;2022-11-02T02:53:50;8.54;81.17
69084;SHT31;56185;48.526;9.044;2022-11-02T02:56:20;8.53;81.73
69084;SHT31;56185;48.526;9.044;2022-11-02T02:58:56;8.42;81.18
69084;SHT31;56185;48.526;9.044;2022-11-02T03:01:22;8.34;81.33
69084;SHT31;56185;48.526;9.044;2022-11-02T03:03:48;8.19;82.18
69084;SHT31;56185;48.526;9.044;2022-11-02T03:06:18;8.28;82.32
69084;SHT31;56185;48.526;9.044;2022-11-02T03:20:56;8.30;83.04
69084;SHT31;56185;48.526;9.044;2022-11-02T03:23:25;8.34;83.16
69084;SHT31;56185;48.526;9.044;2022-11-02T03:26:01;8.36;83.49
69084;SHT31;56185;48.526;9.044;2022-11-02T03:28:36;8.44;83.16
69084;SHT31;56185;48.526;9.044;2022-11-02T03:31:25;8.57;81.91
69084;SHT31;56185;48.526;9.044;2022-11-02T03:34:13;8.37;82.51
69084;SHT31;56185;48.526;9.044;2022-11-02T03:39:17;8.40;82.15
69084;SHT31;56185;48.526;9.044;2022-11-02T03:41:46;8.33;81.61
69084;SHT31;56185;48.526;9.044;2022-11-02T03:44:15;8.29;81.47
69084;SHT31;56185;48.526;9.044;2022-11-02T03:46:42;8.26;81.23
69084;SHT31;56185;48.526;9.044;2022-11-02T03:49:11;8.29;81.56
69084;SHT31;56185;48.526;9.044;2022-11-02T03:51:39;8.33;81.75
69084;SHT31;56185;48.526;9.044;2022-11-02T03:56:43;8.26;81.80
69084;SHT31;56185;48.526;9.044;2022-11-02T03:59:11;8.34;81.18
69084;SHT31;56185;48.526;9.044;2022-11-02T04:01:39;8.12;81.72
69084;SHT31;56185;48.526;9.044;2022-11-02T04:04:05;8.15;81.67
69084;SHT31;56185;48.526;9.044;2022-11-02T04:06:31;8.07;82.13
69084;SHT31;56185;48.526;9.044;2022-11-02T04:08:56;8.06;81.30
69084;SHT31;56185;48.526;9.044;2022-11-02T04:11:21;7.96;81.44
69084;SHT31;56185;48.526;9.044;2022-11-02T04:13:47;7.91;81.84
69084;SHT31;56185;48.526;9.044;2022-11-02T04:16:13;7.89;82.42
69084;SHT31;56185;48.526;9.044;2022-11-02T04:18:39;7.82;82.41
69084;SHT31;56185;48.526;9.044;2022-11-02T04:21:04;8.05;82.20
69084;SHT31;56185;48.526;9.044;2022-11-02T04:23:29;7.88;83.12
69084;SHT31;56185;48.526;9.044;2022-11-02T04:25:54;7.95;82.72
69084;SHT31;56185;48.526;9.044;2022-11-02T04:28:20;8.06;82.13
69084;SHT31;56185;48.526;9.044;2022-11-02T04:30:45;7.96;82.47
69084;SHT31;56185;48.526;9.044;2022-11-02T04:33:10;7.96;81.86
69084;SHT31;56185;48.526;9.044;2022-11-02T04:35:36;8.03;81.71
69084;SHT31;56185;48.526;9.044;2022-11-02T04:38:02;8.10;81.93
69084;SHT31;56185;48.526;9.044;2022-11-02T04:40:28;8.16;81.61
69084;SHT31;56185;48.526;9.044;2022-11-02T04:42:53;8.13;81.12
69084;SHT31;56185;48.526;9.044;2022-11-02T04:45:18;8.06;81.21
69084;SHT31;56185;48.526;9.044;2022-11-02T04:47:43;7.96;81.05
69084;SHT31;56185;48.526;9.044;2022-11-02T04:50:09;7.79;81.73
69084;SHT31;56185;48.526;9.044;2022-11-02T04:52:34;7.79;81.77
69084;SHT31;56185;48.526;9.044;2022-11-02T04:55:00;7.71;82.31
69084;SHT31;56185;48.526;9.044;2022-11-02T04:57:25;7.71;83.15
69084;SHT31;56185;48.526;9.044;2022-11-02T04:59:50;7.58;84.01
69084;SHT31;56185;48.526;9.044;2022-11-02T05:02:15;7.86;82.63
69084;SHT31;56185;48.526;9.044;2022-11-02T05:04:41;7.71;82.73
69084;SHT31;56185;48.526;9.044;2022-11-02T05:07:06;7.54;82.81
69084;SHT31;56185;48.526;9.044;2022-11-02T05:09:31;7.67;82.38
69084;SHT31;56185;48.526;9.044;2022-11-02T05:11:57;7.64;82.03
69084;SHT31;56185;48.526;9.044;2022-11-02T05:14:22;7.57;82.46
69084;SHT31;56185;48.526;9.044;2022-11-02T05:16:47;7.48;82.53
69084;SHT31;56185;48.526;9.044;2022-11-02T05:19:12;7.37;83.56
69084;SHT31;56185;48.526;9.044;2022-11-02T05:21:38;7.37;83.71
69084;SHT31;56185;48.526;9.044;2022-11-02T05:24:03;7.50;83.07
69084;SHT31;56185;48.526;9.044;2022-11-02T05:26:28;7.30;84.05
69084;SHT31;56185;48.526;9.044;2022-11-02T05:28:54;7.35;83.57
69084;SHT31;56185;48.526;9.044;2022-11-02T05:31:19;7.28;83.87
69084;SHT31;56185;48.526;9.044;2022-11-02T05:33:44;7.41;83.30
69084;SHT31;56185;48.526;9.044;2022-11-02T05:36:09;7.46;83.37
69084;SHT31;56185;48.526;9.044;2022-11-02T05:38:35;7.37;83.04
69084;SHT31;56185;48.526;9.044;2022-11-02T05:41:00;7.37;82.76
69084;SHT31;56185;48.526;9.044;2022-11-02T05:43:26;7.35;83.00
69084;SHT31;56185;48.526;9.044;2022-11-02T05:48:17;7.16;84.25
69084;SHT31;56185;48.526;9.044;2022-11-02T05:50:42;7.24;84.49
69084;SHT31;56185;48.526;9.044;2022-11-02T05:53:07;7.23;84.94
69084;SHT31;56185;48.526;9.044;2022-11-02T05:55:33;7.09;86.19
69084;SHT31;56185;48.526;9.044;2022-11-02T05:57:59;7.09;87.01
69084;SHT31;56185;48.526;9.044;2022-11-02T06:00:24;7.12;87.21
69084;SHT31;56185;48.526;9.044;2022-11-02T06:02:56;7.16;86.86
69084;SHT31;56185;48.526;9.044;2022-11-02T06:05:21;7.19;87.26
69084;SHT31;56185;48.526;9.044;2022-11-02T06:07:46;7.10;88.08
69084;SHT31;56185;48.526;9.044;2022-11-02T06:10:11;7.16;87.64
69084;SHT31;56185;48.526;9.044;2022-11-02T06:12:36;7.23;87.44
69084;SHT31;56185;48.526;9.044;2022-11-02T06:15:02;7.33;87.16
69084;SHT31;56185;48.526;9.044;2022-11-02T06:17:27;7.41;86.88
69084;SHT31;56185;48.526;9.044;2022-11-02T06:19:53;7.43;86.66
69084;SHT31;56185;48.526;9.044;2022-11-02T06:22:18;7.47;86.69
69084;SHT31;56185;48.526;9.044;2022-11-02T06:24:43;7.55;86.58
69084;SHT31;56185;48.526;9.044;2022-11-02T06:27:08;7.65;86.03
69084;SHT31;56185;48.526;9.044;2022-11-02T06:29:34;7.61;85.68
69084;SHT31;56185;48.526;9.044;2022-11-02T06:31:59;7.71;85.79
69084;SHT31;56185;48.526;9.044;2022-11-02T06:34:24;7.67;85.52
69084;SHT31;56185;48.526;9.044;2022-11-02T06:36:49;7.77;84.93
69084;SHT31;56185;48.526;9.044;2022-11-02T06:39:15;7.79;84.75
69084;SHT31;56185;48.526;9.044;2022-11-02T06:41:40;7.77;84.63
69084;SHT31;56185;48.526;9.044;2022-11-02T06:44:05;7.82;84.22
69084;SHT31;56185;48.526;9.044;2022-11-02T06:46:31;7.89;83.52
69084;SHT31;56185;48.526;9.044;2022-11-02T06:48:56;7.99;83.40
69084;SHT31;56185;48.526;9.044;2022-11-02T06:51:21;8.07;83.22
69084;SHT31;56185;48.526;9.044;2022-11-02T06:53:46;8.15;83.27
69084;SHT31;56185;48.526;9.044;2022-11-02T06:56:12;8.16;83.23
69084;SHT31;56185;48.526;9.044;2022-11-02T06:58:37;8.07;83.44
69084;SHT31;56185;48.526;9.044;2022-11-02T07:01:06;8.17;83.42
69084;SHT31;56185;48.526;9.044;2022-11-02T07:03:32;8.15;83.48
69084;SHT31;56185;48.526;9.044;2022-11-02T07:05:58;8.23;82.83
69084;SHT31;56185;48.526;9.044;2022-11-02T07:08:24;8.25;82.93
69084;SHT31;56185;48.526;9.044;2022-11-02T07:10:49;8.34;82.81
69084;SHT31;56185;48.526;9.044;2022-11-02T07:13:14;8.42;82.75
69084;SHT31;56185;48.526;9.044;2022-11-02T07:15:40;8.44;82.69
69084;SHT31;56185;48.526;9.044;2022-11-02T07:18:05;8.39;82.63
69084;SHT31;56185;48.526;9.044;2022-11-02T07:20:31;8.42;81.39
69084;SHT31;56185;48.526;9.044;2022-11-02T07:22:58;8.43;81.41
69084;SHT31;56185;48.526;9.044;2022-11-02T07:25:25;8.46;81.26
69084;SHT31;56185;48.526;9.044;2022-11-02T07:27:51;8.46;81.25
69084;SHT31;56185;48.526;9.044;2022-11-02T07:30:16;8.53;81.30
69084;SHT31;56185;48.526;9.044;2022-11-02T07:32:43;8.52;81.24
69084;SHT31;56185;48.526;9.044;2022-11-02T07:35:10;8.57;81.09
69084;SHT31;56185;48.526;9.044;2022-11-02T07:37:42;8.56;81.38
69084;SHT31;56185;48.526;9.044;2022-11-02T07:40:15;8.47;81.99
69084;SHT31;56185;48.526;9.044;2022-11-02T07:45:34;8.70;82.50
69084;SHT31;56185;48.526;9.044;2022-11-02T07:48:00;8.77;82.81
69084;SHT31;56185;48.526;9.044;2022-11-02T07:50:25;8.85;82.62
69084;SHT31;56185;48.526;9.044;2022-11-02T07:52:56;8.85;82.37
69084;SHT31;56185;48.526;9.044;2022-11-02T07:55:27;8.92;82.97
69084;SHT31;56185;48.526;9.044;2022-11-02T07:58:00;8.92;81.99
69084;SHT31;56185;48.526;9.044;2022-11-02T08:00:29;9.00;82.22
69084;SHT31;56185;48.526;9.044;2022-11-02T08:02:59;9.01;82.26
69084;SHT31;56185;48.526;9.044;2022-11-02T08:05:25;8.95;81.91
69084;SHT31;56185;48.526;9.044;2022-11-02T08:10:30;9.29;82.01
69084;SHT31;56185;48.526;9.044;2022-11-02T08:12:56;9.38;81.74
69084;SHT31;56185;48.526;9.044;2022-11-02T08:15:22;9.46;81.06
69084;SHT31;56185;48.526;9.044;2022-11-02T08:17:47;9.63;80.79
69084;SHT31;56185;48.526;9.044;2022-11-02T08:20:13;9.63;80.72
69084;SHT31;56185;48.526;9.044;2022-11-02T08:22:39;9.70;80.75
69084;SHT31;56185;48.526;9.044;2022-11-02T08:25:05;9.80;80.16
69084;SHT31;56185;48.526;9.044;2022-11-02T08:27:31;9.83;80.52
69084;SHT31;56185;48.526;9.044;2022-11-02T08:29:57;9.87;80.74
69084;SHT31;56185;48.526;9.044;2022-11-02T08:32:22;10.00;81.23
69084;SHT31;56185;48.526;9.044;2022-11-02T08:34:48;10.01;80.83
69084;SHT31;56185;48.526;9.044;2022-11-02T08:37:14;10.12;80.48
69084;SHT31;56185;48.526;9.044;2022-11-02T08:42:32;10.22;80.49
69084;SHT31;56185;48.526;9.044;2022-11-02T08:45:08;10.21;81.67
69084;SHT31;56185;48.526;9.044;2022-11-02T08:47:44;10.32;81.77
69084;SHT31;56185;48.526;9.044;2022-11-02T08:53:23;10.52;82.12
69084;SHT31;56185;48.526;9.044;2022-11-02T08:55:48;10.63;82.40
69084;SHT31;56185;48.526;9.044;2022-11-02T08:58:14;10.73;82.07
69084;SHT31;56185;48.526;9.044;2022-11-02T09:01:06;10.92;81.93
69084;SHT31;56185;48.526;9.044;2022-11-02T09:03:55;11.07;81.82
69084;SHT31;56185;48.526;9.044;2022-11-02T09:06:24;11.13;81.93
69084;SHT31;56185;48.526;9.044;2022-11-02T09:09:10;11.27;81.99
69084;SHT31;56185;48.526;9.044;2022-11-02T09:11:35;11.45;81.94
69084;SHT31;56185;48.526;9.044;2022-11-02T09:14:01;11.69;81.76
69084;SHT31;56185;48.526;9.044;2022-11-02T09:16:26;11.90;81.32
69084;SHT31;56185;48.526;9.044;2022-11-02T09:18:52;12.15;80.88
69084;SHT31;56185;48.526;9.044;2022-11-02T09:21:17;12.34;80.89
69084;SHT31;56185;48.526;9.044;2022-11-02T09:23:42;12.61;79.54
69084;SHT31;56185;48.526;9.044;2022-11-02T09:26:08;12.76;79.22
69084;SHT31;56185;48.526;9.044;2022-11-02T09:28:33;12.95;78.44
69084;SHT31;56185;48.526;9.044;2022-11-02T09:31:11;13.12;77.17
69084;SHT31;56185;48.526;9.044;2022-11-02T09:33:36;13.15;76.04
69084;SHT31;56185;48.526;9.044;2022-11-02T09:36:07;13.38;75.11
69084;SHT31;56185;48.526;9.044;2022-11-02T09:38:32;13.45;74.96
69084;SHT31;56185;48.526;9.044;2022-11-02T09:41:14;13.45;74.18
69084;SHT31;56185;48.526;9.044;2022-11-02T09:44:10;13.57;73.36
69084;SHT31;56185;48.526;9.044;2022-11-02T09:46:53;13.63;73.52
69084;SHT31;56185;48.526;9.044;2022-11-02T09:52:42;13.52;73.35
69084;SHT31;56185;48.526;9.044;2022-11-02T09:55:39;13.47;73.23
69084;SHT31;56185;48.526;9.044;2022-11-02T09:58:23;13.63;73.17
69084;SHT31;56185;48.526;9.044;2022-11-02T10:00:56;13.63;73.40
69084;SHT31;56185;48.526;9.044;2022-11-02T10:03:46;13.74;73.40
69084;SHT31;56185;48.526;9.044;2022-11-02T10:06:25;13.76;72.84
69084;SHT31;56185;48.526;9.044;2022-11-02T10:15:03;13.90;73.37
69084;SHT31;56185;48.526;9.044;2022-11-02T10:17:43;13.84;72.77
69084;SHT31;56185;48.526;9.044;2022-11-02T10:25:57;14.11;72.01
69084;SHT31;56185;48.526;9.044;2022-11-02T10:34:33;14.10;71.30
69084;SHT31;56185;48.526;9.044;2022-11-02T10:42:55;14.26;71.07
69084;SHT31;56185;48.526;9.044;2022-11-02T10:45:55;14.35;70.80
69084;SHT31;56185;48.526;9.044;2022-11-02T10:51:17;14.34;69.68
69084;SHT31;56185;48.526;9.044;2022-11-02T10:53:59;14.36;69.55
69084;SHT31;56185;48.526;9.044;2022-11-02T10:59:27;14.44;69.96
69084;SHT31;56185;48.526;9.044;2022-11-02T11:04:26;14.56;69.43
69084;SHT31;56185;48.526;9.044;2022-11-02T11:06:53;14.61;69.38
69084;SHT31;56185;48.526;9.044;2022-11-02T11:09:51;14.72;68.87
69084;SHT31;56185;48.526;9.044;2022-11-02T11:12:55;14.63;68.39
69084;SHT31;56185;48.526;9.044;2022-11-02T11:15:30;14.76;69.17
69084;SHT31;56185;48.526;9.044;2022-11-02T11:17:56;14.68;68.16
69084;SHT31;56185;48.526;9.044;2022-11-02T11:20:34;14.68;68.19
69084;SHT31;56185;48.526;9.044;2022-11-02T11:23:19;14.66;68.49
69084;SHT31;56185;48.526;9.044;2022-11-02T11:26:03;14.62;66.22
69084;SHT31;56185;48.526;9.044;2022-11-02T11:28:52;14.54;66.90
69084;SHT31;56185;48.526;9.044;2022-11-02T11:31:18;14.61;67.80
69084;SHT31;56185;48.526;9.044;2022-11-02T11:33:54;14.72;67.72
69084;SHT31;56185;48.526;9.044;2022-11-02T11:39:25;14.71;66.61
69084;SHT31;56185;48.526;9.044;2022-11-02T11:41:51;14.63;66.16
69084;SHT31;56185;48.526;9.044;2022-11-02T11:44:17;14.63;67.67
69084;SHT31;56185;48.526;9.044;2022-11-02T11:46:45;14.71;66.75
69084;SHT31;56185;48.526;9.044;2022-11-02T11:49:32;14.61;65.68
69084;SHT31;56185;48.526;9.044;2022-11-02T11:51:59;14.63;66.17
69084;SHT31;56185;48.526;9.044;2022-11-02T11:54:29;14.63;65.92
69084;SHT31;56185;48.526;9.044;2022-11-02T11:56:56;14.63;66.01
69084;SHT31;56185;48.526;9.044;2022-11-02T11:59:30;14.68;66.31
69084;SHT31;56185;48.526;9.044;2022-11-02T12:01:58;14.80;65.97
69084;SHT31;56185;48.526;9.044;2022-11-02T12:04:31;14.93;65.40
69084;SHT31;56185;48.526;9.044;2022-11-02T12:10:10;15.11;64.10
69084;SHT31;56185;48.526;9.044;2022-11-02T12:12:45;15.14;64.32
69084;SHT31;56185;48.526;9.044;2022-11-02T12:17:43;15.26;63.97
69084;SHT31;56185;48.526;9.044;2022-11-02T12:26:17;15.57;63.23
69084;SHT31;56185;48.526;9.044;2022-11-02T12:32:32;15.59;61.71
69084;SHT31;56185;48.526;9.044;2022-11-02T12:40:54;15.64;61.18
69084;SHT31;56185;48.526;9.044;2022-11-02T12:43:32;15.52;61.08
69084;SHT31;56185;48.526;9.044;2022-11-02T12:51:11;15.66;60.43
69084;SHT31;56185;48.526;9.044;2022-11-02T12:53:50;15.62;61.03
69084;SHT31;56185;48.526;9.044;2022-11-02T12:56:21;15.64;61.50
69084;SHT31;56185;48.526;9.044;2022-11-02T12:58:47;15.58;60.58
69084;SHT31;56185;48.526;9.044;2022-11-02T13:01:21;15.59;61.34
69084;SHT31;56185;48.526;9.044;2022-11-02T13:03:56;15.59;60.92
69084;SHT31;56185;48.526;9.044;2022-11-02T13:06:28;15.78;61.26
69084;SHT31;56185;48.526;9.044;2022-11-02T13:09:22;15.83;60.52
69084;SHT31;56185;48.526;9.044;2022-11-02T13:12:17;15.69;60.11
69084;SHT31;56185;48.526;9.044;2022-11-02T13:14:49;15.89;60.18
69084;SHT31;56185;48.526;9.044;2022-11-02T13:17:30;15.96;58.39
69084;SHT31;56185;48.526;9.044;2022-11-02T13:20:03;15.92;59.37
69084;SHT31;56185;48.526;9.044;2022-11-02T13:22:34;16.05;59.32
69084;SHT31;56185;48.526;9.044;2022-11-02T13:27:45;16.24;59.26
69084;SHT31;56185;48.526;9.044;2022-11-02T13:30:16;16.36;57.84
69084;SHT31;56185;48.526;9.044;2022-11-02T13:33:03;16.40;57.90
69084;SHT31;56185;48.526;9.044;2022-11-02T13:35:34;16.53;56.97
69084;SHT31;56185;48.526;9.044;2022-11-02T13:38:10;16.53;57.22
69084;SHT31;56185;48.526;9.044;2022-11-02T13:40:49;16.56;56.74
69084;SHT31;56185;48.526;9.044;2022-11-02T13:51:38;16.26;56.14
69084;SHT31;56185;48.526;9.044;2022-11-02T13:54:31;16.22;56.12
69084;SHT31;56185;48.526;9.044;2022-11-02T13:56:58;16.19;56.69
69084;SHT31;56185;48.526;9.044;2022-11-02T13:59:29;16.12;57.76
69084;SHT31;56185;48.526;9.044;2022-11-02T14:01:58;16.03;57.72
69084;SHT31;56185;48.526;9.044;2022-11-02T14:04:25;15.95;57.96
69084;SHT31;56185;48.526;9.044;2022-11-02T14:07:03;15.96;58.83
69084;SHT31;56185;48.526;9.044;2022-11-02T14:09:35;15.91;56.95
69084;SHT31;56185;48.526;9.044;2022-11-02T14:14:45;15.78;58.16
69084;SHT31;56185;48.526;9.044;2022-11-02T14:20:39;15.99;58.29
69084;SHT31;56185;48.526;9.044;2022-11-02T14:25:54;15.89;56.97
69084;SHT31;56185;48.526;9.044;2022-11-02T14:30:47;16.13;55.63
69084;SHT31;56185;48.526;9.044;2022-11-02T14:33:28;15.77;55.05
69084;SHT31;56185;48.526;9.044;2022-11-02T14:36:33;15.78;55.85
69084;SHT31;56185;48.526;9.044;2022-11-02T14:39:15;15.91;56.88
69084;SHT31;56185;48.526;9.044;2022-11-02T14:42:20;15.92;58.87
69084;SHT31;56185;48.526;9.044;2022-11-02T14:45:15;15.86;57.06
69084;SHT31;56185;48.526;9.044;2022-11-02T14:47:42;15.61;58.15
69084;SHT31;56185;48.526;9.044;2022-11-02T14:52:36;15.59;58.26
69084;SHT31;56185;48.526;9.044;2022-11-02T14:57:43;15.61;57.95
69084;SHT31;56185;48.526;9.044;2022-11-02T15:00:17;15.74;59.00
69084;SHT31;56185;48.526;9.044;2022-11-02T15:02:43;15.68;59.00
69084;SHT31;56185;48.526;9.044;2022-11-02T15:05:25;15.57;59.88
69084;SHT31;56185;48.526;9.044;2022-11-02T15:08:02;15.28;59.35
69084;SHT31;56185;48.526;9.044;2022-11-02T15:18:21;15.11;64.00
69084;SHT31;56185;48.526;9.044;2022-11-02T15:26:34;14.65;65.02
69084;SHT31;56185;48.526;9.044;2022-11-02T15:29:03;14.68;64.26
69084;SHT31;56185;48.526;9.044;2022-11-02T15:31:29;14.61;64.44
69084;SHT31;56185;48.526;9.044;2022-11-02T15:33:59;14.61;64.50
69084;SHT31;56185;48.526;9.044;2022-11-02T15:36:32;14.49;65.33
69084;SHT31;56185;48.526;9.044;2022-11-02T15:39:01;14.36;65.60
69084;SHT31;56185;48.526;9.044;2022-11-02T15:41:51;14.24;66.37
69084;SHT31;56185;48.526;9.044;2022-11-02T15:47:07;14.04;65.99
69084;SHT31;56185;48.526;9.044;2022-11-02T15:55:10;13.91;67.08
69084;SHT31;56185;48.526;9.044;2022-11-02T16:00:20;13.65;67.42
69084;SHT31;56185;48.526;9.044;2022-11-02T16:02:47;13.53;68.15
69084;SHT31;56185;48.526;9.044;2022-11-02T16:05:21;13.42;68.30
69084;SHT31;56185;48.526;9.044;2022-11-02T16:07:49;13.45;68.01
69084;SHT31;56185;48.526;9.044;2022-11-02T16:10:27;13.30;69.04
69084;SHT31;56185;48.526;9.044;2022-11-02T16:15:25;12.99;70.23
69084;SHT31;56185;48.526;9.044;2022-11-02T16:17:51;12.92;70.36
69084;SHT31;56185;48.526;9.044;2022-11-02T16:20:25;12.71;71.31
69084;SHT31;56185;48.526;9.044;2022-11-02T16:22:58;12.61;71.69
69084;SHT31;56185;48.526;9.044;2022-11-02T16:25:36;12.60;71.07
69084;SHT31;56185;48.526;9.044;2022-11-02T16:28:23;12.54;71.47
69084;SHT31;56185;48.526;9.044;2022-11-02T16:31:14;12.50;72.09
69084;SHT31;56185;48.526;9.044;2022-11-02T16:36:08;12.40;72.37
69084;SHT31;56185;48.526;9.044;2022-11-02T16:38:37;12.43;71.61
69084;SHT31;56185;48.526;9.044;2022-11-02T16:41:06;12.25;72.41
69084;SHT31;56185;48.526;9.044;2022-11-02T16:43:34;12.23;72.43
69084;SHT31;56185;48.526;9.044;2022-11-02T16:46:01;12.29;72.70
69084;SHT31;56185;48.526;9.044;2022-11-02T16:48:30;12.27;72.62
69084;SHT31;56185;48.526;9.044;2022-11-02T16:53:36;12.09;73.13
69084;SHT31;56185;48.526;9.044;2022-11-02T16:56:14;11.89;74.11
69084;SHT31;56185;48.526;9.044;2022-11-02T16:58:47;11.88;74.59
69084;SHT31;56185;48.526;9.044;2022-11-02T17:01:37;11.90;74.23
69084;SHT31;56185;48.526;9.044;2022-11-02T17:04:22;11.81;74.53
69084;SHT31;56185;48.526;9.044;2022-11-02T17:06:50;11.81;74.78
69084;SHT31;56185;48.526;9.044;2022-11-02T17:09:28;11.65;75.09
69084;SHT31;56185;48.526;9.044;2022-11-02T17:11:57;11.38;74.96
69084;SHT31;56185;48.526;9.044;2022-11-02T17:14:23;11.40;75.48
69084;SHT31;56185;48.526;9.044;2022-11-02T17:17:05;11.48;75.46
69084;SHT31;56185;48.526;9.044;2022-11-02T17:19:42;11.57;74.77
69084;SHT31;56185;48.526;9.044;2022-11-02T17:22:21;11.48;75.03
69084;SHT31;56185;48.526;9.044;2022-11-02T17:24:47;11.48;74.61
69084;SHT31;56185;48.526;9.044;2022-11-02T17:27:24;11.32;75.56
69084;SHT31;56185;48.526;9.044;2022-11-02T17:29:51;11.32;76.02
69084;SHT31;56185;48.526;9.044;2022-11-02T17:32:18;11.32;75.97
69084;SHT31;56185;48.526;9.044;2022-11-02T17:34:49;11.27;75.98
69084;SHT31;56185;48.526;9.044;2022-11-02T17:37:25;11.28;76.07
69084;SHT31;56185;48.526;9.044;2022-11-02T17:39:52;11.20;76.03
69084;SHT31;56185;48.526;9.044;2022-11-02T17:42:18;11.16;76.00
69084;SHT31;56185;48.526;9.044;2022-11-02T17:44:43;10.97;76.81
69084;SHT31;56185;48.526;9.044;2022-11-02T17:47:13;10.96;76.86
69084;SHT31;56185;48.526;9.044;2022-11-02T17:49:39;10.90;76.75
69084;SHT31;56185;48.526;9.044;2022-11-02T17:52:05;10.79;77.28
69084;SHT31;56185;48.526;9.044;2022-11-02T17:54:31;10.69;77.43
69084;SHT31;56185;48.526;9.044;2022-11-02T17:56:56;10.80;77.13
69084;SHT31;56185;48.526;9.044;2022-11-02T17:59:21;10.80;76.74
69084;SHT31;56185;48.526;9.044;2022-11-02T18:01:46;10.75;76.84
69084;SHT31;56185;48.526;9.044;2022-11-02T18:04:12;10.80;76.48
69084;SHT31;56185;48.526;9.044;2022-11-02T18:06:37;10.79;76.53
69084;SHT31;56185;48.526;9.044;2022-11-02T18:09:02;10.72;76.77
69084;SHT31;56185;48.526;9.044;2022-11-02T18:11:27;10.61;77.11
69084;SHT31;56185;48.526;9.044;2022-11-02T18:13:53;10.58;77.28
69084;SHT31;56185;48.526;9.044;2022-11-02T18:16:18;10.52;77.33
69084;SHT31;56185;48.526;9.044;2022-11-02T18:18:43;10.48;77.65
69084;SHT31;56185;48.526;9.044;2022-11-02T18:21:10;10.56;77.53
69084;SHT31;56185;48.526;9.044;2022-11-02T18:23:35;10.56;77.60
69084;SHT31;56185;48.526;9.044;2022-11-02T18:26:01;10.68;77.26
69084;SHT31;56185;48.526;9.044;2022-11-02T18:28:26;10.55;78.16
69084;SHT31;56185;48.526;9.044;2022-11-02T18:30:51;10.68;77.54
69084;SHT31;56185;48.526;9.044;2022-11-02T18:33:16;10.65;78.11
69084;SHT31;56185;48.526;9.044;2022-11-02T18:35:42;10.66;77.70
69084;SHT31;56185;48.526;9.044;2022-11-02T18:38:07;10.72;77.70
69084;SHT31;56185;48.526;9.044;2022-11-02T18:40:32;10.58;78.84
69084;SHT31;56185;48.526;9.044;2022-11-02T18:42:57;10.53;78.35